createdAt,value
2022-08-07T00:00:24.441Z,10.85
2022-08-07T00:02:50.939Z,10.83
2022-08-07T00:05:20.041Z,10.78
2022-08-07T00:07:47.055Z,10.75
2022-08-07T00:10:26.082Z,10.72
2022-08-07T00:13:00.408Z,10.67
2022-08-07T00:15:38.219Z,10.59
2022-08-07T00:18:19.349Z,10.60
2022-08-07T00:20:46.685Z,10.57
2022-08-07T00:23:14.188Z,10.61
2022-08-07T00:25:41.481Z,10.60
2022-08-07T00:28:08.253Z,10.56
2022-08-07T00:30:37.102Z,10.50
2022-08-07T00:33:03.545Z,10.45
2022-08-07T00:35:30.475Z,10.44
2022-08-07T00:37:58.623Z,10.36
2022-08-07T00:40:39.916Z,10.27
2022-08-07T00:43:09.826Z,10.25
2022-08-07T00:45:37.060Z,10.20
2022-08-07T00:48:08.202Z,10.19
2022-08-07T00:50:46.105Z,10.17
2022-08-07T00:53:18.622Z,10.13
2022-08-07T00:56:02.765Z,10.11
2022-08-07T00:58:31.025Z,10.08
2022-08-07T01:00:58.308Z,10.07
2022-08-07T01:03:57.312Z,10.03
2022-08-07T01:06:12.338Z,9.96
2022-08-07T01:08:43.204Z,9.99
2022-08-07T01:12:04.996Z,9.93
2022-08-07T01:14:07.836Z,9.93
2022-08-07T01:16:36.949Z,9.91
2022-08-07T01:19:18.303Z,9.88
2022-08-07T01:21:47.134Z,9.86
2022-08-07T01:24:14.580Z,9.82
2022-08-07T01:26:51.948Z,9.75
2022-08-07T01:29:19.153Z,9.72
2022-08-07T01:31:48.217Z,9.68
2022-08-07T01:34:15.323Z,9.61
2022-08-07T01:36:41.882Z,9.60
2022-08-07T01:39:10.939Z,9.57
2022-08-07T01:41:39.132Z,9.56
2022-08-07T01:44:21.447Z,9.55
2022-08-07T01:46:50.090Z,9.50
2022-08-07T01:49:16.640Z,9.51
2022-08-07T01:52:02.074Z,9.49
2022-08-07T01:54:36.839Z,9.49
2022-08-07T01:57:24.623Z,9.50
2022-08-07T02:00:03.704Z,9.49
2022-08-07T02:03:18.961Z,9.50
2022-08-07T02:05:47.645Z,9.47
2022-08-07T02:08:19.128Z,9.46
2022-08-07T02:10:55.131Z,9.44
2022-08-07T02:13:56.646Z,9.43
2022-08-07T02:16:11.880Z,9.39
2022-08-07T02:18:47.263Z,9.37
2022-08-07T02:21:16.615Z,9.37
2022-08-07T02:23:44.952Z,9.37
2022-08-07T02:26:32.716Z,9.36
2022-08-07T02:29:02.107Z,9.31
2022-08-07T02:31:30.783Z,9.30
2022-08-07T02:34:04.055Z,9.30
2022-08-07T02:36:39.403Z,9.26
2022-08-07T02:39:09.491Z,9.17
2022-08-07T02:41:50.913Z,9.10
2022-08-07T02:44:23.156Z,9.10
2022-08-07T02:46:55.972Z,9.10
2022-08-07T02:49:28.603Z,9.09
2022-08-07T02:52:13.980Z,9.09
2022-08-07T02:54:42.422Z,9.06
2022-08-07T02:57:13.422Z,9.07
2022-08-07T02:59:42.421Z,9.05
2022-08-07T03:02:09.815Z,9.02
2022-08-07T03:04:37.894Z,9.03
2022-08-07T03:07:07.225Z,9.02
2022-08-07T03:09:43.773Z,8.95
2022-08-07T03:12:21.624Z,8.89
2022-08-07T03:14:52.325Z,8.81
2022-08-07T03:17:19.740Z,8.82
2022-08-07T03:19:54.889Z,8.80
2022-08-07T03:22:24.195Z,8.78
2022-08-07T03:24:56.273Z,8.79
2022-08-07T03:27:30.312Z,8.81
2022-08-07T03:29:58.649Z,8.79
2022-08-07T03:32:28.427Z,8.75
2022-08-07T03:35:17.160Z,8.74
2022-08-07T03:37:53.786Z,8.72
2022-08-07T03:40:22.515Z,8.69
2022-08-07T03:42:50.992Z,8.68
2022-08-07T03:45:20.945Z,8.65
2022-08-07T03:47:58.481Z,8.63
2022-08-07T03:50:25.375Z,8.60
2022-08-07T03:52:58.016Z,8.58
2022-08-07T03:55:24.627Z,8.58
2022-08-07T03:59:07.063Z,8.58
2022-08-07T04:01:00.455Z,8.57
2022-08-07T04:03:27.084Z,8.56
2022-08-07T04:05:53.736Z,8.54
2022-08-07T04:08:26.225Z,8.52
2022-08-07T04:10:54.320Z,8.52
2022-08-07T04:14:09.301Z,8.54
2022-08-07T04:16:31.422Z,8.53
2022-08-07T04:19:01.592Z,8.54
2022-08-07T04:21:32.028Z,8.54
2022-08-07T04:24:05.982Z,8.54
2022-08-07T04:26:34.064Z,8.53
2022-08-07T04:29:00.435Z,8.55
2022-08-07T04:32:02.104Z,8.54
2022-08-07T04:34:17.419Z,8.55
2022-08-07T04:36:54.342Z,8.56
2022-08-07T04:39:25.813Z,8.60
2022-08-07T04:41:52.523Z,8.65
2022-08-07T04:44:19.340Z,8.71
2022-08-07T04:47:04.859Z,8.75
2022-08-07T04:49:42.418Z,8.82
2022-08-07T04:52:46.847Z,8.86
2022-08-07T04:58:12.326Z,8.90
2022-08-07T04:59:18.274Z,8.95
2022-08-07T05:01:59.967Z,9.04
2022-08-07T05:04:44.086Z,9.12
2022-08-07T05:07:36.603Z,9.18
2022-08-07T05:10:06.166Z,9.28
2022-08-07T05:12:51.322Z,9.39
2022-08-07T05:15:24.389Z,9.52
2022-08-07T05:18:16.216Z,9.61
2022-08-07T05:20:47.963Z,9.69
2022-08-07T05:23:53.365Z,9.84
2022-08-07T05:26:23.711Z,9.97
2022-08-07T05:28:55.723Z,10.12
2022-08-07T05:31:25.160Z,10.41
2022-08-07T05:34:05.856Z,10.93
2022-08-07T05:36:42.779Z,11.54
2022-08-07T05:40:17.404Z,12.22
2022-08-07T05:42:02.582Z,13.09
2022-08-07T05:44:31.264Z,14.01
2022-08-07T05:47:01.213Z,15.02
2022-08-07T05:49:40.548Z,16.08
2022-08-07T05:52:08.217Z,17.23
2022-08-07T05:54:53.453Z,18.29
2022-08-07T05:57:26.428Z,19.44
2022-08-07T05:59:57.440Z,20.42
2022-08-07T06:02:28.719Z,21.24
2022-08-07T06:05:01.669Z,22.05
2022-08-07T06:08:14.073Z,22.80
2022-08-07T06:10:18.088Z,23.58
2022-08-07T06:12:45.913Z,24.32
2022-08-07T06:15:16.252Z,25.02
2022-08-07T06:17:53.706Z,25.65
2022-08-07T06:20:32.018Z,26.09
2022-08-07T06:23:45.982Z,26.18
2022-08-07T06:25:57.988Z,26.18
2022-08-07T06:28:27.307Z,26.21
2022-08-07T06:30:54.894Z,26.58
2022-08-07T06:33:22.672Z,27.14
2022-08-07T06:36:12.477Z,27.57
2022-08-07T06:38:35.638Z,28.03
2022-08-07T06:41:06.915Z,28.52
2022-08-07T06:43:39.633Z,28.87
2022-08-07T06:46:12.314Z,28.99
2022-08-07T06:48:42.085Z,29.23
2022-08-07T06:51:16.684Z,29.75
2022-08-07T06:55:27.907Z,30.29
2022-08-07T06:56:49.770Z,30.78
2022-08-07T07:00:12.817Z,31.18
2022-08-07T07:02:20.316Z,31.52
2022-08-07T07:05:06.965Z,31.80
2022-08-07T07:08:00.129Z,32.02
2022-08-07T07:10:30.397Z,32.26
2022-08-07T07:13:07.923Z,32.45
2022-08-07T07:15:43.273Z,32.57
2022-08-07T07:18:48.118Z,32.63
2022-08-07T07:21:22.202Z,32.79
2022-08-07T07:24:10.028Z,32.73
2022-08-07T07:26:40.789Z,32.67
2022-08-07T07:29:40.151Z,32.83
2022-08-07T07:32:09.690Z,33.23
2022-08-07T07:34:40.832Z,33.55
2022-08-07T07:37:21.529Z,33.70
2022-08-07T07:39:54.502Z,33.30
2022-08-07T07:42:25.935Z,33.12
2022-08-07T07:45:02.294Z,32.68
2022-08-07T07:47:30.087Z,32.46
2022-08-07T07:50:33.755Z,32.53
2022-08-07T07:53:00.871Z,32.46
2022-08-07T07:55:37.312Z,31.95
2022-08-07T07:58:13.175Z,31.37
2022-08-07T08:00:42.502Z,31.33
2022-08-07T08:04:09.366Z,31.14
2022-08-07T08:06:06.187Z,31.43
2022-08-07T08:08:36.992Z,31.84
2022-08-07T08:11:08.788Z,32.04
2022-08-07T08:13:54.660Z,31.78
2022-08-07T08:16:29.861Z,31.57
2022-08-07T08:18:58.453Z,31.80
2022-08-07T08:21:55.702Z,32.13
2022-08-07T08:24:18.611Z,32.29
2022-08-07T08:27:09.388Z,32.32
2022-08-07T08:29:54.183Z,32.38
2022-08-07T08:32:38.641Z,32.63
2022-08-07T08:35:09.871Z,32.90
2022-08-07T08:37:59.899Z,33.14
2022-08-07T08:40:37.452Z,33.34
2022-08-07T08:43:18.911Z,33.56
2022-08-07T08:45:59.129Z,33.59
2022-08-07T08:48:45.751Z,33.68
2022-08-07T08:52:13.171Z,33.88
2022-08-07T08:54:47.207Z,33.72
2022-08-07T08:57:25.927Z,33.50
2022-08-07T09:00:01.640Z,33.46
2022-08-07T09:02:34.580Z,33.58
2022-08-07T09:05:36.875Z,33.46
2022-08-07T09:08:28.517Z,33.36
2022-08-07T09:11:50.618Z,33.69
2022-08-07T09:14:34.089Z,33.56
2022-08-07T09:17:59.021Z,33.57
2022-08-07T09:20:38.879Z,32.78
2022-08-07T09:24:33.193Z,32.76
2022-08-07T09:26:31.908Z,32.66
2022-08-07T09:30:05.591Z,32.56
2022-08-07T09:32:37.472Z,32.30
2022-08-07T09:36:04.846Z,31.89
2022-08-07T09:38:12.603Z,31.81
2022-08-07T09:41:01.533Z,31.95
2022-08-07T09:44:05.887Z,31.76
2022-08-07T09:47:56.174Z,30.71
2022-08-07T09:50:02.528Z,30.19
2022-08-07T09:52:51.653Z,29.80
2022-08-07T09:56:03.534Z,29.19
2022-08-07T09:58:42.364Z,29.16
2022-08-07T10:01:52.631Z,29.12
2022-08-07T10:04:52.740Z,29.46
2022-08-07T10:08:11.497Z,29.44
2022-08-07T10:11:59.753Z,29.46
2022-08-07T10:14:00.261Z,29.18
2022-08-07T10:16:33.097Z,28.50
2022-08-07T10:19:19.023Z,28.41
2022-08-07T10:22:24.834Z,28.06
2022-08-07T10:25:23.040Z,28.21
2022-08-07T10:28:12.631Z,28.50
2022-08-07T10:31:05.928Z,28.36
2022-08-07T10:34:06.482Z,28.09
2022-08-07T10:36:56.121Z,28.34
2022-08-07T10:40:05.442Z,28.51
2022-08-07T10:42:46.927Z,28.43
2022-08-07T10:45:57.270Z,28.47
2022-08-07T10:48:45.644Z,28.70
2022-08-07T10:51:39.369Z,28.87
2022-08-07T10:54:35.381Z,29.02
2022-08-07T10:57:34.583Z,28.97
2022-08-07T11:00:10.068Z,29.01
2022-08-07T11:03:00.381Z,28.97
2022-08-07T11:05:55.193Z,28.62
2022-08-07T11:08:35.552Z,28.11
2022-08-07T11:11:05.401Z,27.65
2022-08-07T11:14:44.286Z,27.50
2022-08-07T11:16:36.344Z,27.50
2022-08-07T11:19:27.133Z,27.42
2022-08-07T11:22:32.334Z,27.47
2022-08-07T11:25:20.296Z,27.73
2022-08-07T11:28:15.298Z,28.02
2022-08-07T11:31:02.594Z,28.15
2022-08-07T11:34:00.446Z,28.38
2022-08-07T11:36:30.907Z,28.50
2022-08-07T11:39:20.037Z,28.40
2022-08-07T11:42:18.971Z,28.63
2022-08-07T11:44:57.520Z,28.28
2022-08-07T11:47:56.624Z,27.92
2022-08-07T11:50:57.871Z,27.59
2022-08-07T11:54:01.399Z,27.15
2022-08-07T11:56:40.600Z,27.05
2022-08-07T12:00:12.045Z,27.35
2022-08-07T12:02:49.776Z,27.81
2022-08-07T12:06:39.716Z,28.19
2022-08-07T12:08:55.944Z,28.18
2022-08-07T12:11:32.383Z,28.11
2022-08-07T12:14:08.143Z,28.14
2022-08-07T12:16:40.873Z,28.17
2022-08-07T12:19:21.581Z,28.15
2022-08-07T12:22:39.247Z,27.91
2022-08-07T12:25:07.802Z,27.54
2022-08-07T12:28:09.718Z,27.25
2022-08-07T12:30:33.033Z,27.21
2022-08-07T12:33:31.049Z,27.28
2022-08-07T12:36:16.231Z,27.03
2022-08-07T12:38:47.381Z,27.08
2022-08-07T12:41:42.667Z,26.97
2022-08-07T12:44:17.154Z,26.90
2022-08-07T12:46:57.501Z,26.70
2022-08-07T12:49:51.945Z,26.56
2022-08-07T12:52:35.003Z,26.49
2022-08-07T12:55:40.566Z,26.46
2022-08-07T12:58:12.895Z,26.56
2022-08-07T13:00:54.292Z,26.93
2022-08-07T13:03:54.676Z,27.12
2022-08-07T13:07:01.691Z,27.22
2022-08-07T13:10:19.600Z,27.38
2022-08-07T13:13:47.491Z,27.57
2022-08-07T13:16:15.798Z,27.74
2022-08-07T13:18:57.093Z,27.16
2022-08-07T13:21:51.125Z,26.64
2022-08-07T13:24:34.061Z,26.34
2022-08-07T13:27:10.342Z,26.17
2022-08-07T13:29:47.000Z,26.03
2022-08-07T13:32:31.611Z,26.25
2022-08-07T13:35:15.755Z,26.65
2022-08-07T13:38:01.027Z,26.99
2022-08-07T13:40:54.298Z,27.00
2022-08-07T13:43:22.888Z,26.76
2022-08-07T13:46:21.188Z,26.39
2022-08-07T13:48:51.913Z,25.94
2022-08-07T13:52:05.603Z,25.24
2022-08-07T13:54:22.461Z,24.89
2022-08-07T13:56:56.263Z,24.77
2022-08-07T13:59:29.145Z,24.78
2022-08-07T14:02:04.512Z,24.83
2022-08-07T14:04:35.610Z,24.92
2022-08-07T14:07:06.492Z,25.22
2022-08-07T14:10:02.693Z,25.22
2022-08-07T14:12:41.581Z,24.91
2022-08-07T14:15:18.652Z,24.67
2022-08-07T14:18:23.567Z,24.52
2022-08-07T14:20:41.830Z,24.44
2022-08-07T14:23:58.573Z,24.59
2022-08-07T14:26:28.405Z,24.64
2022-08-07T14:29:05.950Z,24.67
2022-08-07T14:31:56.445Z,24.87
2022-08-07T14:34:29.915Z,24.93
2022-08-07T14:37:01.783Z,24.83
2022-08-07T14:40:15.701Z,24.91
2022-08-07T14:42:24.793Z,24.86
2022-08-07T14:44:59.770Z,24.88
2022-08-07T14:47:44.473Z,24.71
2022-08-07T14:50:15.394Z,24.77
2022-08-07T14:52:42.201Z,24.83
2022-08-07T14:55:12.088Z,24.81
2022-08-07T15:00:39.293Z,24.72
2022-08-07T15:06:03.618Z,24.41
2022-08-07T15:08:50.345Z,24.45
2022-08-07T15:11:52.872Z,24.36
2022-08-07T15:14:30.651Z,24.22
2022-08-07T15:17:01.140Z,24.05
2022-08-07T15:20:30.702Z,23.95
2022-08-07T15:25:18.419Z,23.89
2022-08-07T15:28:32.124Z,23.80
2022-08-07T15:30:36.389Z,23.67
2022-08-07T15:33:33.957Z,23.57
2022-08-07T15:36:05.611Z,23.52
2022-08-07T15:38:51.652Z,23.44
2022-08-07T15:42:44.791Z,23.41
2022-08-07T15:44:14.057Z,23.37
2022-08-07T15:46:51.726Z,23.32
2022-08-07T15:52:13.786Z,23.33
2022-08-07T15:54:44.518Z,23.37
2022-08-07T15:57:40.211Z,23.43
2022-08-07T16:00:06.853Z,23.40
2022-08-07T16:02:46.723Z,23.39
2022-08-07T16:05:17.497Z,23.30
2022-08-07T16:08:33.326Z,23.15
2022-08-07T16:10:37.138Z,22.92
2022-08-07T16:13:57.792Z,22.90
2022-08-07T16:16:48.818Z,22.91
2022-08-07T16:19:42.184Z,22.86
2022-08-07T16:22:55.314Z,22.74
2022-08-07T16:25:54.740Z,22.64
2022-08-07T16:30:06.977Z,22.57
2022-08-07T16:31:58.191Z,22.57
2022-08-07T16:34:48.072Z,22.45
2022-08-07T16:38:06.538Z,22.48
2022-08-07T16:40:57.256Z,22.33
2022-08-07T16:44:03.834Z,22.24
2022-08-07T16:47:16.345Z,22.24
2022-08-07T16:50:35.214Z,22.26
2022-08-07T16:54:02.225Z,22.18
2022-08-07T16:56:23.236Z,22.24
2022-08-07T16:59:11.215Z,22.21
2022-08-07T17:02:15.484Z,22.15
2022-08-07T17:06:19.636Z,22.04
2022-08-07T17:08:10.833Z,22.00
2022-08-07T17:10:40.784Z,21.93
2022-08-07T17:13:19.698Z,21.91
2022-08-07T17:15:53.969Z,21.98
2022-08-07T17:18:32.538Z,21.95
2022-08-07T17:21:01.145Z,21.87
2022-08-07T17:23:51.669Z,21.88
2022-08-07T17:26:30.498Z,21.92
2022-08-07T17:30:14.177Z,21.87
2022-08-07T17:32:30.627Z,21.75
2022-08-07T17:35:51.742Z,21.58
2022-08-07T17:38:05.033Z,21.54
2022-08-07T17:40:56.426Z,21.42
2022-08-07T17:44:01.906Z,21.43
2022-08-07T17:46:47.031Z,21.34
2022-08-07T17:49:30.184Z,21.20
2022-08-07T17:52:31.149Z,21.20
2022-08-07T17:55:08.537Z,21.12
2022-08-07T17:57:58.998Z,21.06
2022-08-07T18:00:34.213Z,21.05
2022-08-07T18:03:18.484Z,21.03
2022-08-07T18:06:03.070Z,20.99
2022-08-07T18:09:01.259Z,20.95
2022-08-07T18:12:11.867Z,20.91
2022-08-07T18:14:45.087Z,20.88
2022-08-07T18:18:47.318Z,20.81
2022-08-07T18:21:10.964Z,20.66
2022-08-07T18:23:43.364Z,20.57
2022-08-07T18:26:17.939Z,20.50
2022-08-07T18:29:03.660Z,20.40
2022-08-07T18:31:50.158Z,20.24
2022-08-07T18:35:00.526Z,20.17
2022-08-07T18:38:57.454Z,20.08
2022-08-07T18:40:42.732Z,20.00
2022-08-07T18:44:17.112Z,19.88
2022-08-07T18:46:54.860Z,19.78
2022-08-07T18:50:31.879Z,19.66
2022-08-07T18:53:02.875Z,19.57
2022-08-07T18:55:40.677Z,19.45
2022-08-07T18:58:28.583Z,19.31
2022-08-07T19:01:04.771Z,19.16
2022-08-07T19:04:01.287Z,19.04
2022-08-07T19:06:41.131Z,18.87
2022-08-07T19:09:55.389Z,18.74
2022-08-07T19:12:34.113Z,18.62
2022-08-07T19:16:02.404Z,18.49
2022-08-07T19:18:34.564Z,18.39
2022-08-07T19:21:47.639Z,18.28
2022-08-07T19:24:35.615Z,18.13
2022-08-07T19:28:57.903Z,18.04
2022-08-07T19:30:58.702Z,17.91
2022-08-07T19:32:50.900Z,17.76
2022-08-07T19:35:22.655Z,17.65
2022-08-07T19:37:57.957Z,17.57
2022-08-07T19:40:34.843Z,17.51
2022-08-07T19:43:09.527Z,17.49
2022-08-07T19:46:05.147Z,17.44
2022-08-07T19:48:42.889Z,17.29
2022-08-07T19:51:19.337Z,17.13
2022-08-07T19:54:34.958Z,17.03
2022-08-07T19:57:51.866Z,16.95
2022-08-07T19:59:39.945Z,16.90
2022-08-07T20:02:19.142Z,16.84
2022-08-07T20:04:49.198Z,16.77
2022-08-07T20:07:23.500Z,16.69
2022-08-07T20:10:36.314Z,16.61
2022-08-07T20:12:44.849Z,16.52
2022-08-07T20:15:22.067Z,16.45
2022-08-07T20:17:56.365Z,16.36
2022-08-07T20:20:31.375Z,16.30
2022-08-07T20:23:10.888Z,16.24
2022-08-07T20:25:51.013Z,16.19
2022-08-07T20:28:19.421Z,16.13
2022-08-07T20:30:47.249Z,16.06
2022-08-07T20:33:24.412Z,15.96
2022-08-07T20:36:06.377Z,15.87
2022-08-07T20:38:34.017Z,15.83
2022-08-07T20:41:03.835Z,15.79
2022-08-07T20:43:33.942Z,15.73
2022-08-07T20:46:28.442Z,15.67
2022-08-07T20:49:54.367Z,15.62
2022-08-07T20:51:40.693Z,15.53
2022-08-07T20:54:30.339Z,15.48
2022-08-07T20:57:03.307Z,15.42
2022-08-07T21:00:07.167Z,15.34
2022-08-07T21:02:23.261Z,15.33
2022-08-07T21:04:54.728Z,15.31
2022-08-07T21:07:23.376Z,15.29
2022-08-07T21:10:00.367Z,15.24
2022-08-07T21:12:30.845Z,15.17
2022-08-07T21:15:02.470Z,15.12
2022-08-07T21:18:06.151Z,15.11
2022-08-07T21:20:30.427Z,15.06
2022-08-07T21:23:08.500Z,15.01
2022-08-07T21:25:58.526Z,14.94
2022-08-07T21:28:48.594Z,14.87
2022-08-07T21:32:03.682Z,14.81
2022-08-07T21:34:48.302Z,14.70
2022-08-07T21:37:23.836Z,14.58
2022-08-07T21:39:59.557Z,14.50
2022-08-07T21:42:42.688Z,14.44
2022-08-07T21:46:05.113Z,14.38
2022-08-07T21:48:34.328Z,14.33
2022-08-07T21:51:32.524Z,14.30
2022-08-07T21:54:30.392Z,14.27
2022-08-07T21:57:06.185Z,14.24
2022-08-07T22:00:04.287Z,14.21
2022-08-07T22:03:05.633Z,14.16
2022-08-07T22:05:46.238Z,14.12
2022-08-07T22:08:19.572Z,14.11
2022-08-07T22:10:50.955Z,14.09
2022-08-07T22:13:24.382Z,14.03
2022-08-07T22:16:43.356Z,13.96
2022-08-07T22:19:29.315Z,13.88
2022-08-07T22:22:28.933Z,13.83
2022-08-07T22:25:02.504Z,13.80
2022-08-07T22:28:07.753Z,13.72
2022-08-07T22:30:31.698Z,13.61
2022-08-07T22:33:04.571Z,13.52
2022-08-07T22:35:41.660Z,13.47
2022-08-07T22:38:24.084Z,13.47
2022-08-07T22:41:07.476Z,13.43
2022-08-07T22:43:48.756Z,13.41
2022-08-07T22:47:06.529Z,13.39
2022-08-07T22:49:51.746Z,13.35
2022-08-07T22:52:43.359Z,13.28
2022-08-07T22:55:22.599Z,13.19
2022-08-07T22:58:27.923Z,13.07
2022-08-07T23:01:21.930Z,13.01
2022-08-07T23:04:03.926Z,12.97
2022-08-07T23:06:51.291Z,12.95
2022-08-07T23:10:06.339Z,12.93
2022-08-07T23:13:04.211Z,12.91
2022-08-07T23:16:48.454Z,12.91
2022-08-07T23:19:11.436Z,12.90
2022-08-07T23:21:51.759Z,12.88
2022-08-07T23:24:38.715Z,12.86
2022-08-07T23:27:33.942Z,12.85
2022-08-07T23:30:38.060Z,12.82
2022-08-07T23:34:36.712Z,12.76
2022-08-07T23:36:36.313Z,12.67
2022-08-07T23:39:22.036Z,12.58
2022-08-07T23:42:05.883Z,12.52
2022-08-07T23:44:48.376Z,12.48
2022-08-07T23:47:42.262Z,12.43
2022-08-07T23:50:49.641Z,12.36
2022-08-07T23:53:49.321Z,12.28
2022-08-07T23:56:38.890Z,12.23
